sensor_id;sensor_type;location;lat;lon;timestamp;P1;durP1;ratioP1;P2;durP2;ratioP2
55134;SDS011;41031;44.750;11.308;2022-11-25T00:01:19;45.47;;;28.30;;
55134;SDS011;41031;44.750;11.308;2022-11-25T00:03:49;46.17;;;30.27;;
55134;SDS011;41031;44.750;11.308;2022-11-25T00:06:21;49.07;;;32.77;;
55134;SDS011;41031;44.750;11.308;2022-11-25T00:09:00;56.13;;;35.00;;
55134;SDS011;41031;44.750;11.308;2022-11-25T00:11:28;42.83;;;30.07;;
55134;SDS011;41031;44.750;11.308;2022-11-25T00:13:55;47.77;;;32.50;;
55134;SDS011;41031;44.750;11.308;2022-11-25T00:16:23;44.83;;;30.43;;
55134;SDS011;41031;44.750;11.308;2022-11-25T00:18:52;42.47;;;29.20;;
55134;SDS011;41031;44.750;11.308;2022-11-25T00:21:22;52.83;;;33.40;;
55134;SDS011;41031;44.750;11.308;2022-11-25T00:23:54;40.37;;;28.47;;
55134;SDS011;41031;44.750;11.308;2022-11-25T00:26:29;42.43;;;27.13;;
55134;SDS011;41031;44.750;11.308;2022-11-25T00:28:59;42.23;;;27.83;;
55134;SDS011;41031;44.750;11.308;2022-11-25T00:31:28;39.03;;;27.33;;
55134;SDS011;41031;44.750;11.308;2022-11-25T00:33:57;40.13;;;26.50;;
55134;SDS011;41031;44.750;11.308;2022-11-25T00:36:29;38.30;;;27.10;;
55134;SDS011;41031;44.750;11.308;2022-11-25T00:39:11;42.53;;;27.00;;
55134;SDS011;41031;44.750;11.308;2022-11-25T00:41:40;43.50;;;28.57;;
55134;SDS011;41031;44.750;11.308;2022-11-25T00:44:27;35.33;;;25.87;;
55134;SDS011;41031;44.750;11.308;2022-11-25T00:49:38;44.33;;;27.33;;
55134;SDS011;41031;44.750;11.308;2022-11-25T00:52:07;39.27;;;28.93;;
55134;SDS011;41031;44.750;11.308;2022-11-25T00:54:36;36.57;;;26.13;;
55134;SDS011;41031;44.750;11.308;2022-11-25T00:57:03;38.00;;;25.63;;
55134;SDS011;41031;44.750;11.308;2022-11-25T00:59:30;32.23;;;22.83;;
55134;SDS011;41031;44.750;11.308;2022-11-25T01:01:58;35.03;;;27.03;;
55134;SDS011;41031;44.750;11.308;2022-11-25T01:04:25;41.43;;;28.00;;
55134;SDS011;41031;44.750;11.308;2022-11-25T01:06:52;43.23;;;27.83;;
55134;SDS011;41031;44.750;11.308;2022-11-25T01:09:22;41.37;;;28.17;;
55134;SDS011;41031;44.750;11.308;2022-11-25T01:11:49;35.47;;;25.03;;
55134;SDS011;41031;44.750;11.308;2022-11-25T01:14:17;36.80;;;26.13;;
55134;SDS011;41031;44.750;11.308;2022-11-25T01:16:46;40.33;;;27.87;;
55134;SDS011;41031;44.750;11.308;2022-11-25T01:19:14;43.13;;;28.03;;
55134;SDS011;41031;44.750;11.308;2022-11-25T01:21:41;38.10;;;26.97;;
55134;SDS011;41031;44.750;11.308;2022-11-25T01:24:10;37.80;;;26.70;;
55134;SDS011;41031;44.750;11.308;2022-11-25T01:26:40;35.80;;;24.73;;
55134;SDS011;41031;44.750;11.308;2022-11-25T01:29:11;40.43;;;26.50;;
55134;SDS011;41031;44.750;11.308;2022-11-25T01:31:40;44.20;;;28.43;;
55134;SDS011;41031;44.750;11.308;2022-11-25T01:36:40;40.13;;;28.50;;
55134;SDS011;41031;44.750;11.308;2022-11-25T01:39:07;41.40;;;27.63;;
55134;SDS011;41031;44.750;11.308;2022-11-25T01:41:38;43.13;;;28.47;;
55134;SDS011;41031;44.750;11.308;2022-11-25T01:46:44;37.57;;;25.60;;
55134;SDS011;41031;44.750;11.308;2022-11-25T01:49:29;36.07;;;26.07;;
55134;SDS011;41031;44.750;11.308;2022-11-25T01:52:27;40.03;;;28.30;;
55134;SDS011;41031;44.750;11.308;2022-11-25T01:55:01;48.97;;;31.10;;
55134;SDS011;41031;44.750;11.308;2022-11-25T02:00:23;37.60;;;26.57;;
55134;SDS011;41031;44.750;11.308;2022-11-25T02:02:51;42.50;;;27.93;;
55134;SDS011;41031;44.750;11.308;2022-11-25T02:08:29;49.27;;;31.00;;
55134;SDS011;41031;44.750;11.308;2022-11-25T02:10:58;48.07;;;32.20;;
55134;SDS011;41031;44.750;11.308;2022-11-25T02:13:27;52.93;;;31.53;;
55134;SDS011;41031;44.750;11.308;2022-11-25T02:15:54;55.17;;;33.53;;
55134;SDS011;41031;44.750;11.308;2022-11-25T02:18:23;60.83;;;35.03;;
55134;SDS011;41031;44.750;11.308;2022-11-25T02:20:51;61.03;;;35.97;;
55134;SDS011;41031;44.750;11.308;2022-11-25T02:26:33;44.57;;;30.47;;
55134;SDS011;41031;44.750;11.308;2022-11-25T02:29:01;48.90;;;32.90;;
55134;SDS011;41031;44.750;11.308;2022-11-25T02:31:28;47.57;;;31.87;;
55134;SDS011;41031;44.750;11.308;2022-11-25T02:33:56;41.67;;;28.60;;
55134;SDS011;41031;44.750;11.308;2022-11-25T02:36:23;46.40;;;29.40;;
55134;SDS011;41031;44.750;11.308;2022-11-25T02:38:56;41.07;;;29.40;;
55134;SDS011;41031;44.750;11.308;2022-11-25T02:41:36;49.27;;;32.67;;
55134;SDS011;41031;44.750;11.308;2022-11-25T02:44:10;53.77;;;31.67;;
55134;SDS011;41031;44.750;11.308;2022-11-25T02:46:38;43.50;;;29.97;;
55134;SDS011;41031;44.750;11.308;2022-11-25T02:49:05;44.57;;;30.27;;
55134;SDS011;41031;44.750;11.308;2022-11-25T02:51:36;46.43;;;31.43;;
55134;SDS011;41031;44.750;11.308;2022-11-25T02:54:04;65.53;;;33.30;;
55134;SDS011;41031;44.750;11.308;2022-11-25T02:56:33;44.10;;;30.63;;
55134;SDS011;41031;44.750;11.308;2022-11-25T02:59:01;48.10;;;30.40;;
55134;SDS011;41031;44.750;11.308;2022-11-25T03:01:29;76.20;;;30.90;;
55134;SDS011;41031;44.750;11.308;2022-11-25T03:03:58;55.70;;;31.20;;
55134;SDS011;41031;44.750;11.308;2022-11-25T03:06:26;59.80;;;30.97;;
55134;SDS011;41031;44.750;11.308;2022-11-25T03:08:54;55.27;;;31.30;;
55134;SDS011;41031;44.750;11.308;2022-11-25T03:11:22;111.13;;;30.13;;
55134;SDS011;41031;44.750;11.308;2022-11-25T03:14:12;41.33;;;27.50;;
55134;SDS011;41031;44.750;11.308;2022-11-25T03:16:41;40.17;;;29.23;;
55134;SDS011;41031;44.750;11.308;2022-11-25T03:19:08;39.43;;;27.73;;
55134;SDS011;41031;44.750;11.308;2022-11-25T03:21:36;47.40;;;28.40;;
55134;SDS011;41031;44.750;11.308;2022-11-25T03:24:03;42.43;;;25.13;;
55134;SDS011;41031;44.750;11.308;2022-11-25T03:26:30;61.07;;;32.33;;
55134;SDS011;41031;44.750;11.308;2022-11-25T03:28:57;48.13;;;28.70;;
55134;SDS011;41031;44.750;11.308;2022-11-25T03:31:25;89.60;;;27.70;;
55134;SDS011;41031;44.750;11.308;2022-11-25T03:33:53;78.80;;;26.73;;
55134;SDS011;41031;44.750;11.308;2022-11-25T03:36:21;66.33;;;26.47;;
55134;SDS011;41031;44.750;11.308;2022-11-25T03:38:48;77.27;;;28.90;;
55134;SDS011;41031;44.750;11.308;2022-11-25T03:41:16;62.10;;;27.13;;
55134;SDS011;41031;44.750;11.308;2022-11-25T03:43:43;71.77;;;29.90;;
55134;SDS011;41031;44.750;11.308;2022-11-25T03:46:11;50.03;;;26.63;;
55134;SDS011;41031;44.750;11.308;2022-11-25T03:48:38;35.10;;;25.07;;
55134;SDS011;41031;44.750;11.308;2022-11-25T03:51:06;40.80;;;24.27;;
55134;SDS011;41031;44.750;11.308;2022-11-25T03:53:34;46.40;;;26.90;;
55134;SDS011;41031;44.750;11.308;2022-11-25T03:56:03;52.20;;;25.97;;
55134;SDS011;41031;44.750;11.308;2022-11-25T03:58:31;42.67;;;26.07;;
55134;SDS011;41031;44.750;11.308;2022-11-25T04:00:59;46.10;;;29.03;;
55134;SDS011;41031;44.750;11.308;2022-11-25T04:03:29;42.37;;;28.77;;
55134;SDS011;41031;44.750;11.308;2022-11-25T04:05:57;40.43;;;27.13;;
55134;SDS011;41031;44.750;11.308;2022-11-25T04:08:24;37.80;;;27.17;;
55134;SDS011;41031;44.750;11.308;2022-11-25T04:10:53;43.43;;;28.07;;
55134;SDS011;41031;44.750;11.308;2022-11-25T04:13:23;38.00;;;29.83;;
55134;SDS011;41031;44.750;11.308;2022-11-25T04:15:51;47.80;;;28.17;;
55134;SDS011;41031;44.750;11.308;2022-11-25T04:18:19;55.27;;;31.23;;
55134;SDS011;41031;44.750;11.308;2022-11-25T04:20:49;38.60;;;28.20;;
55134;SDS011;41031;44.750;11.308;2022-11-25T04:23:17;37.23;;;27.80;;
55134;SDS011;41031;44.750;11.308;2022-11-25T04:25:53;34.97;;;27.37;;
55134;SDS011;41031;44.750;11.308;2022-11-25T04:28:26;41.63;;;28.73;;
55134;SDS011;41031;44.750;11.308;2022-11-25T04:30:53;87.63;;;32.37;;
55134;SDS011;41031;44.750;11.308;2022-11-25T04:33:20;72.50;;;31.07;;
55134;SDS011;41031;44.750;11.308;2022-11-25T04:35:47;55.80;;;30.60;;
55134;SDS011;41031;44.750;11.308;2022-11-25T04:38:15;59.57;;;30.97;;
55134;SDS011;41031;44.750;11.308;2022-11-25T04:40:42;108.53;;;33.87;;
55134;SDS011;41031;44.750;11.308;2022-11-25T04:43:12;128.33;;;35.60;;
55134;SDS011;41031;44.750;11.308;2022-11-25T04:45:46;71.03;;;32.47;;
55134;SDS011;41031;44.750;11.308;2022-11-25T04:48:34;66.43;;;31.93;;
55134;SDS011;41031;44.750;11.308;2022-11-25T04:51:02;94.20;;;35.27;;
55134;SDS011;41031;44.750;11.308;2022-11-25T04:53:30;83.17;;;33.63;;
55134;SDS011;41031;44.750;11.308;2022-11-25T04:55:57;83.10;;;34.10;;
55134;SDS011;41031;44.750;11.308;2022-11-25T04:58:24;113.43;;;35.37;;
55134;SDS011;41031;44.750;11.308;2022-11-25T05:01:11;108.10;;;34.37;;
55134;SDS011;41031;44.750;11.308;2022-11-25T05:03:43;114.50;;;32.80;;
55134;SDS011;41031;44.750;11.308;2022-11-25T05:06:17;74.90;;;32.13;;
55134;SDS011;41031;44.750;11.308;2022-11-25T05:08:49;177.97;;;33.13;;
55134;SDS011;41031;44.750;11.308;2022-11-25T05:11:18;79.50;;;32.07;;
55134;SDS011;41031;44.750;11.308;2022-11-25T05:13:45;99.10;;;33.47;;
55134;SDS011;41031;44.750;11.308;2022-11-25T05:16:12;95.53;;;31.83;;
55134;SDS011;41031;44.750;11.308;2022-11-25T05:18:40;60.20;;;31.13;;
55134;SDS011;41031;44.750;11.308;2022-11-25T05:21:07;164.20;;;34.97;;
55134;SDS011;41031;44.750;11.308;2022-11-25T05:23:38;102.87;;;31.70;;
55134;SDS011;41031;44.750;11.308;2022-11-25T05:26:05;97.20;;;32.97;;
55134;SDS011;41031;44.750;11.308;2022-11-25T05:28:41;84.93;;;32.00;;
55134;SDS011;41031;44.750;11.308;2022-11-25T05:31:10;64.20;;;29.90;;
55134;SDS011;41031;44.750;11.308;2022-11-25T05:33:38;54.33;;;30.57;;
55134;SDS011;41031;44.750;11.308;2022-11-25T05:36:08;61.63;;;29.63;;
55134;SDS011;41031;44.750;11.308;2022-11-25T05:38:44;72.13;;;31.70;;
55134;SDS011;41031;44.750;11.308;2022-11-25T05:41:17;81.07;;;30.30;;
55134;SDS011;41031;44.750;11.308;2022-11-25T05:43:45;48.17;;;29.00;;
55134;SDS011;41031;44.750;11.308;2022-11-25T05:46:13;49.70;;;29.07;;
55134;SDS011;41031;44.750;11.308;2022-11-25T05:48:51;46.73;;;30.03;;
55134;SDS011;41031;44.750;11.308;2022-11-25T05:51:19;67.90;;;31.33;;
55134;SDS011;41031;44.750;11.308;2022-11-25T05:53:48;71.17;;;31.33;;
55134;SDS011;41031;44.750;11.308;2022-11-25T05:56:18;85.23;;;31.87;;
55134;SDS011;41031;44.750;11.308;2022-11-25T05:59:20;60.73;;;31.17;;
55134;SDS011;41031;44.750;11.308;2022-11-25T06:02:01;63.93;;;27.93;;
55134;SDS011;41031;44.750;11.308;2022-11-25T06:04:29;67.70;;;30.93;;
55134;SDS011;41031;44.750;11.308;2022-11-25T06:06:56;142.73;;;31.60;;
55134;SDS011;41031;44.750;11.308;2022-11-25T06:09:23;131.13;;;31.30;;
55134;SDS011;41031;44.750;11.308;2022-11-25T06:11:50;53.30;;;28.20;;
55134;SDS011;41031;44.750;11.308;2022-11-25T06:14:18;41.13;;;28.10;;
55134;SDS011;41031;44.750;11.308;2022-11-25T06:16:47;38.17;;;28.70;;
55134;SDS011;41031;44.750;11.308;2022-11-25T06:19:22;48.13;;;31.00;;
55134;SDS011;41031;44.750;11.308;2022-11-25T06:21:49;39.30;;;28.60;;
55134;SDS011;41031;44.750;11.308;2022-11-25T06:24:16;39.80;;;27.17;;
55134;SDS011;41031;44.750;11.308;2022-11-25T06:26:45;43.80;;;29.57;;
55134;SDS011;41031;44.750;11.308;2022-11-25T06:29:12;39.90;;;29.63;;
55134;SDS011;41031;44.750;11.308;2022-11-25T06:31:43;50.53;;;34.93;;
55134;SDS011;41031;44.750;11.308;2022-11-25T06:34:33;52.03;;;32.73;;
55134;SDS011;41031;44.750;11.308;2022-11-25T06:37:12;51.90;;;32.77;;
55134;SDS011;41031;44.750;11.308;2022-11-25T06:39:39;46.53;;;32.27;;
55134;SDS011;41031;44.750;11.308;2022-11-25T06:42:06;43.60;;;31.67;;
55134;SDS011;41031;44.750;11.308;2022-11-25T06:44:33;44.57;;;30.33;;
55134;SDS011;41031;44.750;11.308;2022-11-25T06:47:00;51.50;;;34.27;;
55134;SDS011;41031;44.750;11.308;2022-11-25T06:49:28;50.20;;;34.37;;
55134;SDS011;41031;44.750;11.308;2022-11-25T06:51:55;51.63;;;32.67;;
55134;SDS011;41031;44.750;11.308;2022-11-25T06:54:22;52.93;;;34.97;;
55134;SDS011;41031;44.750;11.308;2022-11-25T06:56:49;49.60;;;35.63;;
55134;SDS011;41031;44.750;11.308;2022-11-25T06:59:19;52.90;;;35.77;;
55134;SDS011;41031;44.750;11.308;2022-11-25T07:01:47;55.27;;;36.33;;
55134;SDS011;41031;44.750;11.308;2022-11-25T07:04:14;49.73;;;36.23;;
55134;SDS011;41031;44.750;11.308;2022-11-25T07:06:41;58.80;;;38.17;;
55134;SDS011;41031;44.750;11.308;2022-11-25T07:09:08;55.90;;;37.03;;
55134;SDS011;41031;44.750;11.308;2022-11-25T07:11:35;51.30;;;35.37;;
55134;SDS011;41031;44.750;11.308;2022-11-25T07:14:05;55.33;;;37.03;;
55134;SDS011;41031;44.750;11.308;2022-11-25T07:16:36;63.77;;;38.03;;
55134;SDS011;41031;44.750;11.308;2022-11-25T07:19:05;59.13;;;39.40;;
55134;SDS011;41031;44.750;11.308;2022-11-25T07:21:33;58.13;;;36.80;;
55134;SDS011;41031;44.750;11.308;2022-11-25T07:24:02;68.27;;;40.10;;
55134;SDS011;41031;44.750;11.308;2022-11-25T07:26:32;68.27;;;38.87;;
55134;SDS011;41031;44.750;11.308;2022-11-25T07:29:01;69.03;;;38.47;;
55134;SDS011;41031;44.750;11.308;2022-11-25T07:31:37;99.67;;;40.80;;
55134;SDS011;41031;44.750;11.308;2022-11-25T07:34:06;63.73;;;38.83;;
55134;SDS011;41031;44.750;11.308;2022-11-25T07:36:40;65.70;;;39.87;;
55134;SDS011;41031;44.750;11.308;2022-11-25T07:39:09;96.77;;;39.43;;
55134;SDS011;41031;44.750;11.308;2022-11-25T07:41:38;67.07;;;37.57;;
55134;SDS011;41031;44.750;11.308;2022-11-25T07:44:09;61.60;;;36.73;;
55134;SDS011;41031;44.750;11.308;2022-11-25T07:46:48;102.20;;;40.63;;
55134;SDS011;41031;44.750;11.308;2022-11-25T07:49:18;66.57;;;36.50;;
55134;SDS011;41031;44.750;11.308;2022-11-25T07:51:51;97.30;;;39.90;;
55134;SDS011;41031;44.750;11.308;2022-11-25T07:54:20;104.73;;;39.97;;
55134;SDS011;41031;44.750;11.308;2022-11-25T07:56:48;63.20;;;37.20;;
55134;SDS011;41031;44.750;11.308;2022-11-25T07:59:17;74.67;;;37.27;;
55134;SDS011;41031;44.750;11.308;2022-11-25T08:01:47;124.00;;;41.50;;
55134;SDS011;41031;44.750;11.308;2022-11-25T08:04:18;70.73;;;38.37;;
55134;SDS011;41031;44.750;11.308;2022-11-25T08:06:47;84.57;;;39.00;;
55134;SDS011;41031;44.750;11.308;2022-11-25T08:09:16;109.37;;;39.97;;
55134;SDS011;41031;44.750;11.308;2022-11-25T08:11:46;108.47;;;42.57;;
55134;SDS011;41031;44.750;11.308;2022-11-25T08:14:14;79.07;;;38.93;;
55134;SDS011;41031;44.750;11.308;2022-11-25T08:16:42;64.13;;;40.13;;
55134;SDS011;41031;44.750;11.308;2022-11-25T08:19:10;64.70;;;41.53;;
55134;SDS011;41031;44.750;11.308;2022-11-25T08:21:40;62.90;;;41.17;;
55134;SDS011;41031;44.750;11.308;2022-11-25T08:24:09;56.63;;;39.00;;
55134;SDS011;41031;44.750;11.308;2022-11-25T08:26:41;58.93;;;38.50;;
55134;SDS011;41031;44.750;11.308;2022-11-25T08:29:09;55.53;;;39.97;;
55134;SDS011;41031;44.750;11.308;2022-11-25T08:31:40;57.57;;;39.33;;
55134;SDS011;41031;44.750;11.308;2022-11-25T08:34:08;55.93;;;39.60;;
55134;SDS011;41031;44.750;11.308;2022-11-25T08:36:41;56.47;;;41.03;;
55134;SDS011;41031;44.750;11.308;2022-11-25T08:39:14;53.03;;;38.27;;
55134;SDS011;41031;44.750;11.308;2022-11-25T08:42:01;49.03;;;35.63;;
55134;SDS011;41031;44.750;11.308;2022-11-25T08:44:29;49.13;;;38.77;;
55134;SDS011;41031;44.750;11.308;2022-11-25T08:46:57;50.93;;;39.10;;
55134;SDS011;41031;44.750;11.308;2022-11-25T08:49:24;49.10;;;38.10;;
55134;SDS011;41031;44.750;11.308;2022-11-25T08:51:52;50.63;;;39.67;;
55134;SDS011;41031;44.750;11.308;2022-11-25T08:54:19;50.73;;;40.47;;
55134;SDS011;41031;44.750;11.308;2022-11-25T08:56:46;55.23;;;38.73;;
55134;SDS011;41031;44.750;11.308;2022-11-25T08:59:13;61.27;;;45.27;;
55134;SDS011;41031;44.750;11.308;2022-11-25T09:01:40;61.67;;;45.57;;
55134;SDS011;41031;44.750;11.308;2022-11-25T09:04:07;65.87;;;49.20;;
55134;SDS011;41031;44.750;11.308;2022-11-25T09:06:34;60.83;;;47.60;;
55134;SDS011;41031;44.750;11.308;2022-11-25T09:09:01;61.83;;;46.77;;
55134;SDS011;41031;44.750;11.308;2022-11-25T09:11:31;58.03;;;44.23;;
55134;SDS011;41031;44.750;11.308;2022-11-25T09:13:58;54.17;;;39.63;;
55134;SDS011;41031;44.750;11.308;2022-11-25T09:16:25;57.57;;;39.87;;
55134;SDS011;41031;44.750;11.308;2022-11-25T09:18:53;50.47;;;40.83;;
55134;SDS011;41031;44.750;11.308;2022-11-25T09:21:22;52.20;;;39.47;;
55134;SDS011;41031;44.750;11.308;2022-11-25T09:23:50;50.57;;;40.30;;
55134;SDS011;41031;44.750;11.308;2022-11-25T09:26:21;48.93;;;37.37;;
55134;SDS011;41031;44.750;11.308;2022-11-25T09:28:53;52.20;;;38.27;;
55134;SDS011;41031;44.750;11.308;2022-11-25T09:31:21;44.90;;;37.40;;
55134;SDS011;41031;44.750;11.308;2022-11-25T09:33:49;46.47;;;35.20;;
55134;SDS011;41031;44.750;11.308;2022-11-25T09:36:17;40.70;;;33.53;;
55134;SDS011;41031;44.750;11.308;2022-11-25T09:38:45;43.57;;;34.87;;
55134;SDS011;41031;44.750;11.308;2022-11-25T09:44:37;42.07;;;32.43;;
55134;SDS011;41031;44.750;11.308;2022-11-25T09:50:16;41.10;;;32.93;;
55134;SDS011;41031;44.750;11.308;2022-11-25T09:55:45;45.97;;;34.57;;
55134;SDS011;41031;44.750;11.308;2022-11-25T09:58:34;48.13;;;37.07;;
55134;SDS011;41031;44.750;11.308;2022-11-25T10:01:05;45.97;;;37.20;;
55134;SDS011;41031;44.750;11.308;2022-11-25T10:03:43;53.50;;;37.00;;
55134;SDS011;41031;44.750;11.308;2022-11-25T10:06:15;47.57;;;36.23;;
55134;SDS011;41031;44.750;11.308;2022-11-25T10:08:49;48.87;;;38.33;;
55134;SDS011;41031;44.750;11.308;2022-11-25T10:11:25;44.90;;;35.97;;
55134;SDS011;41031;44.750;11.308;2022-11-25T10:13:55;46.00;;;36.43;;
55134;SDS011;41031;44.750;11.308;2022-11-25T10:22:41;45.43;;;35.53;;
55134;SDS011;41031;44.750;11.308;2022-11-25T10:27:58;42.57;;;35.50;;
55134;SDS011;41031;44.750;11.308;2022-11-25T10:30:34;43.77;;;35.57;;
55134;SDS011;41031;44.750;11.308;2022-11-25T10:33:33;52.07;;;38.10;;
55134;SDS011;41031;44.750;11.308;2022-11-25T10:36:18;55.40;;;40.53;;
55134;SDS011;41031;44.750;11.308;2022-11-25T10:38:58;48.20;;;38.17;;
55134;SDS011;41031;44.750;11.308;2022-11-25T10:41:34;49.70;;;38.23;;
55134;SDS011;41031;44.750;11.308;2022-11-25T10:44:12;49.47;;;38.23;;
55134;SDS011;41031;44.750;11.308;2022-11-25T10:49:55;51.77;;;39.43;;
55134;SDS011;41031;44.750;11.308;2022-11-25T10:52:38;54.97;;;39.67;;
55134;SDS011;41031;44.750;11.308;2022-11-25T10:55:13;50.10;;;38.57;;
55134;SDS011;41031;44.750;11.308;2022-11-25T10:57:42;48.63;;;38.80;;
55134;SDS011;41031;44.750;11.308;2022-11-25T11:00:29;48.33;;;35.57;;
55134;SDS011;41031;44.750;11.308;2022-11-25T11:02:57;42.13;;;29.20;;
55134;SDS011;41031;44.750;11.308;2022-11-25T11:05:42;33.37;;;28.00;;
55134;SDS011;41031;44.750;11.308;2022-11-25T11:08:15;38.90;;;29.73;;
55134;SDS011;41031;44.750;11.308;2022-11-25T11:13:57;38.23;;;30.43;;
55134;SDS011;41031;44.750;11.308;2022-11-25T11:16:41;41.20;;;31.93;;
55134;SDS011;41031;44.750;11.308;2022-11-25T11:22:13;38.57;;;31.23;;
55134;SDS011;41031;44.750;11.308;2022-11-25T11:24:42;36.53;;;29.43;;
55134;SDS011;41031;44.750;11.308;2022-11-25T11:29:47;41.37;;;31.47;;
55134;SDS011;41031;44.750;11.308;2022-11-25T11:32:33;46.93;;;35.20;;
55134;SDS011;41031;44.750;11.308;2022-11-25T11:37:42;41.80;;;31.70;;
55134;SDS011;41031;44.750;11.308;2022-11-25T11:48:22;42.73;;;32.33;;
55134;SDS011;41031;44.750;11.308;2022-11-25T11:54:07;38.60;;;33.40;;
55134;SDS011;41031;44.750;11.308;2022-11-25T11:56:46;41.67;;;31.60;;
55134;SDS011;41031;44.750;11.308;2022-11-25T12:04:43;39.63;;;32.03;;
55134;SDS011;41031;44.750;11.308;2022-11-25T12:13:13;33.30;;;26.37;;
55134;SDS011;41031;44.750;11.308;2022-11-25T12:18:14;35.40;;;24.73;;
55134;SDS011;41031;44.750;11.308;2022-11-25T12:20:53;28.20;;;25.00;;
55134;SDS011;41031;44.750;11.308;2022-11-25T12:23:38;29.47;;;23.57;;
55134;SDS011;41031;44.750;11.308;2022-11-25T12:26:13;30.10;;;23.93;;
55134;SDS011;41031;44.750;11.308;2022-11-25T12:28:53;24.70;;;21.57;;
55134;SDS011;41031;44.750;11.308;2022-11-25T12:36:41;24.93;;;21.40;;
55134;SDS011;41031;44.750;11.308;2022-11-25T12:39:28;27.90;;;22.03;;
55134;SDS011;41031;44.750;11.308;2022-11-25T12:42:16;24.40;;;20.83;;
55134;SDS011;41031;44.750;11.308;2022-11-25T12:47:24;27.70;;;21.30;;
55134;SDS011;41031;44.750;11.308;2022-11-25T12:49:51;29.73;;;21.93;;
55134;SDS011;41031;44.750;11.308;2022-11-25T12:52:41;24.73;;;20.70;;
55134;SDS011;41031;44.750;11.308;2022-11-25T12:55:17;23.87;;;19.10;;
55134;SDS011;41031;44.750;11.308;2022-11-25T13:01:07;22.90;;;17.83;;
55134;SDS011;41031;44.750;11.308;2022-11-25T13:04:08;24.20;;;19.03;;
55134;SDS011;41031;44.750;11.308;2022-11-25T13:10:13;23.63;;;18.93;;
55134;SDS011;41031;44.750;11.308;2022-11-25T13:15:51;21.80;;;17.73;;
55134;SDS011;41031;44.750;11.308;2022-11-25T13:18:21;27.87;;;18.53;;
55134;SDS011;41031;44.750;11.308;2022-11-25T13:20:52;21.40;;;18.50;;
55134;SDS011;41031;44.750;11.308;2022-11-25T13:23:24;23.27;;;17.43;;
55134;SDS011;41031;44.750;11.308;2022-11-25T13:26:31;24.37;;;18.23;;
55134;SDS011;41031;44.750;11.308;2022-11-25T13:28:58;24.50;;;17.73;;
55134;SDS011;41031;44.750;11.308;2022-11-25T13:31:30;21.73;;;17.93;;
55134;SDS011;41031;44.750;11.308;2022-11-25T13:34:21;25.83;;;18.17;;
55134;SDS011;41031;44.750;11.308;2022-11-25T13:36:57;22.50;;;17.20;;
55134;SDS011;41031;44.750;11.308;2022-11-25T13:39:33;20.87;;;16.73;;
55134;SDS011;41031;44.750;11.308;2022-11-25T13:42:23;20.90;;;16.93;;
55134;SDS011;41031;44.750;11.308;2022-11-25T13:44:52;21.87;;;16.87;;
55134;SDS011;41031;44.750;11.308;2022-11-25T13:49:53;19.47;;;16.60;;
55134;SDS011;41031;44.750;11.308;2022-11-25T13:52:31;24.13;;;17.17;;
55134;SDS011;41031;44.750;11.308;2022-11-25T13:55:30;24.37;;;17.73;;
55134;SDS011;41031;44.750;11.308;2022-11-25T14:06:03;25.03;;;17.50;;
55134;SDS011;41031;44.750;11.308;2022-11-25T14:08:38;25.93;;;17.47;;
55134;SDS011;41031;44.750;11.308;2022-11-25T14:20:28;26.23;;;18.83;;
55134;SDS011;41031;44.750;11.308;2022-11-25T14:25:54;24.20;;;19.27;;
55134;SDS011;41031;44.750;11.308;2022-11-25T14:28:31;22.27;;;17.53;;
55134;SDS011;41031;44.750;11.308;2022-11-25T14:31:05;24.37;;;19.60;;
55134;SDS011;41031;44.750;11.308;2022-11-25T14:33:37;27.53;;;19.17;;
55134;SDS011;41031;44.750;11.308;2022-11-25T14:36:14;27.07;;;19.83;;
55134;SDS011;41031;44.750;11.308;2022-11-25T14:38:48;21.20;;;17.50;;
55134;SDS011;41031;44.750;11.308;2022-11-25T14:41:48;22.30;;;18.47;;
55134;SDS011;41031;44.750;11.308;2022-11-25T14:44:25;29.43;;;19.37;;
55134;SDS011;41031;44.750;11.308;2022-11-25T14:46:58;27.23;;;19.33;;
55134;SDS011;41031;44.750;11.308;2022-11-25T14:52:33;24.33;;;17.63;;
55134;SDS011;41031;44.750;11.308;2022-11-25T14:55:02;25.37;;;19.10;;
55134;SDS011;41031;44.750;11.308;2022-11-25T14:57:32;23.40;;;18.93;;
55134;SDS011;41031;44.750;11.308;2022-11-25T15:00:05;23.63;;;17.83;;
55134;SDS011;41031;44.750;11.308;2022-11-25T15:02:35;23.23;;;18.07;;
55134;SDS011;41031;44.750;11.308;2022-11-25T15:05:19;24.37;;;18.10;;
55134;SDS011;41031;44.750;11.308;2022-11-25T15:07:56;22.87;;;17.57;;
55134;SDS011;41031;44.750;11.308;2022-11-25T15:12:55;25.50;;;17.40;;
55134;SDS011;41031;44.750;11.308;2022-11-25T15:15:25;28.17;;;18.27;;
55134;SDS011;41031;44.750;11.308;2022-11-25T15:17:53;23.93;;;17.17;;
55134;SDS011;41031;44.750;11.308;2022-11-25T15:20:20;23.13;;;17.90;;
55134;SDS011;41031;44.750;11.308;2022-11-25T15:22:50;19.80;;;16.93;;
55134;SDS011;41031;44.750;11.308;2022-11-25T15:25:19;25.23;;;16.93;;
55134;SDS011;41031;44.750;11.308;2022-11-25T15:27:49;23.30;;;17.73;;
55134;SDS011;41031;44.750;11.308;2022-11-25T15:32:45;24.93;;;17.40;;
55134;SDS011;41031;44.750;11.308;2022-11-25T15:35:16;23.13;;;17.20;;
55134;SDS011;41031;44.750;11.308;2022-11-25T15:37:48;23.80;;;18.37;;
55134;SDS011;41031;44.750;11.308;2022-11-25T15:40:32;24.50;;;18.17;;
55134;SDS011;41031;44.750;11.308;2022-11-25T15:43:22;24.07;;;18.50;;
55134;SDS011;41031;44.750;11.308;2022-11-25T15:45:56;23.17;;;18.30;;
55134;SDS011;41031;44.750;11.308;2022-11-25T15:48:31;25.93;;;19.13;;
55134;SDS011;41031;44.750;11.308;2022-11-25T15:53:38;26.40;;;20.43;;
55134;SDS011;41031;44.750;11.308;2022-11-25T15:56:05;27.10;;;19.27;;
55134;SDS011;41031;44.750;11.308;2022-11-25T15:58:36;27.73;;;19.17;;
55134;SDS011;41031;44.750;11.308;2022-11-25T16:03:41;26.97;;;19.80;;
55134;SDS011;41031;44.750;11.308;2022-11-25T16:06:17;27.90;;;20.80;;
55134;SDS011;41031;44.750;11.308;2022-11-25T16:08:53;28.70;;;19.37;;
55134;SDS011;41031;44.750;11.308;2022-11-25T16:11:22;26.80;;;19.70;;
55134;SDS011;41031;44.750;11.308;2022-11-25T16:13:52;33.17;;;20.97;;
55134;SDS011;41031;44.750;11.308;2022-11-25T16:26:35;29.90;;;23.20;;
55134;SDS011;41031;44.750;11.308;2022-11-25T16:29:13;31.37;;;24.17;;
55134;SDS011;41031;44.750;11.308;2022-11-25T16:31:42;31.17;;;23.37;;
55134;SDS011;41031;44.750;11.308;2022-11-25T16:34:13;41.97;;;25.77;;
55134;SDS011;41031;44.750;11.308;2022-11-25T16:36:43;36.50;;;24.50;;
55134;SDS011;41031;44.750;11.308;2022-11-25T16:39:10;29.50;;;23.50;;
55134;SDS011;41031;44.750;11.308;2022-11-25T16:41:37;32.63;;;24.00;;
55134;SDS011;41031;44.750;11.308;2022-11-25T16:44:16;31.97;;;23.87;;
55134;SDS011;41031;44.750;11.308;2022-11-25T16:46:44;33.27;;;23.90;;
55134;SDS011;41031;44.750;11.308;2022-11-25T16:49:14;35.80;;;25.40;;
55134;SDS011;41031;44.750;11.308;2022-11-25T16:51:43;41.20;;;28.10;;
55134;SDS011;41031;44.750;11.308;2022-11-25T16:54:11;36.47;;;26.60;;